Pilanesberg International Airport

Jump to: basic info | weather | frequencies | runways | comments

Related pages: nearby airports | nearby navaids | notams | map

Basic information (top)

Codes: NTY FAPN
Location: lon -25.333799, lat 27.173401, elev 3,412 ft / 1,040 m msl
Status: small_airport
Scheduled airline service: no
Links: Wikipedia Mobile

Weather (top)

Current conditions (rec'd 2014/04/18 10:00Z):

FAPN 181000Z AUTO 17004KT //// // ////// 20/13 Q1024

Airport forecast (rec'd 2014/04/09 07:26Z):

TAF FAPN 090600Z 0907/0918 VRB02KT CAVOK 
      BECMG 0908/0910 10005KT SCT040 PROB30 
      TEMPO 0911/0915 -TSRA FEW040CB TX24/0913ZTN15/0918Z

Frequencies (top)

Verify before use: may be inaccurate or out of date.

TWR: 118.4 MHz (TWR)

Runways (top)

05/23: 9,022 x 98 ft (2,750 x 30 m) — paved — lighted

Latest comments (top)

Flighs: Kindly request if you do have flights ... [read]

More... (top)

See also NOTAMs and nearby airports and navaids, or visit the Pilanesberg International Airport page at the main OurAirports website..